createdAt,value
2023-01-06T00:01:18.104Z,73.88
2023-01-06T00:03:49.503Z,73.74
2023-01-06T00:06:17.269Z,73.82
2023-01-06T00:08:45.139Z,73.93
2023-01-06T00:11:16.327Z,73.88
2023-01-06T00:13:44.169Z,74.12
2023-01-06T00:16:19.222Z,73.72
2023-01-06T00:18:47.703Z,73.88
2023-01-06T00:21:16.580Z,74.05
2023-01-06T00:23:44.487Z,73.82
2023-01-06T00:26:12.710Z,73.85
2023-01-06T00:28:40.584Z,74.16
2023-01-06T00:31:09.963Z,73.89
2023-01-06T00:33:39.855Z,73.91
2023-01-06T00:36:09.349Z,74.13
2023-01-06T00:38:38.556Z,73.99
2023-01-06T00:41:27.988Z,73.87
2023-01-06T00:43:57.258Z,73.77
2023-01-06T00:46:28.872Z,73.76
2023-01-06T00:49:07.846Z,74.08
2023-01-06T00:51:37.608Z,73.66
2023-01-06T00:54:05.935Z,73.92
2023-01-06T00:56:33.969Z,73.85
2023-01-06T00:59:03.696Z,73.87
2023-01-06T01:01:31.651Z,74.05
2023-01-06T01:04:01.055Z,73.73
2023-01-06T01:06:29.089Z,73.66
2023-01-06T01:08:58.120Z,73.47
2023-01-06T01:11:44.520Z,73.89
2023-01-06T01:14:13.579Z,73.67
2023-01-06T01:16:41.482Z,73.51
2023-01-06T01:19:10.984Z,73.77
2023-01-06T01:21:38.937Z,73.55
2023-01-06T01:24:07.341Z,73.56
2023-01-06T01:26:35.206Z,73.62
2023-01-06T01:29:03.242Z,73.80
2023-01-06T01:31:31.394Z,73.48
2023-01-06T01:33:59.227Z,73.50
2023-01-06T01:36:28.384Z,73.32
2023-01-06T01:38:57.410Z,73.29
2023-01-06T01:41:26.190Z,73.31
2023-01-06T01:43:56.222Z,73.81
2023-01-06T01:46:28.879Z,73.56
2023-01-06T01:48:59.556Z,73.33
2023-01-06T01:51:34.723Z,73.38
2023-01-06T01:54:08.834Z,73.45
2023-01-06T01:56:42.918Z,73.47
2023-01-06T01:59:14.561Z,73.17
2023-01-06T02:01:42.487Z,73.27
2023-01-06T02:04:11.636Z,73.22
2023-01-06T02:06:42.020Z,73.57
2023-01-06T02:09:17.642Z,73.30
2023-01-06T02:11:47.516Z,73.05
2023-01-06T02:14:17.931Z,73.37
2023-01-06T02:17:00.023Z,73.09
2023-01-06T02:20:08.124Z,73.16
2023-01-06T02:23:11.279Z,73.17
2023-01-06T02:26:05.841Z,73.27
2023-01-06T02:29:03.622Z,73.27
2023-01-06T02:31:49.034Z,73.29
2023-01-06T02:34:27.761Z,73.18
2023-01-06T02:37:07.125Z,73.12
2023-01-06T02:39:44.629Z,73.02
2023-01-06T02:42:20.318Z,72.95
2023-01-06T02:45:00.094Z,73.01
2023-01-06T02:47:36.200Z,73.11
2023-01-06T02:50:17.677Z,72.79
2023-01-06T02:52:51.822Z,72.88
2023-01-06T02:55:25.136Z,72.65
2023-01-06T02:57:58.440Z,72.68
2023-01-06T03:00:34.591Z,72.72
2023-01-06T03:03:05.824Z,72.64
2023-01-06T03:05:38.125Z,72.76
2023-01-06T03:08:13.473Z,72.73
2023-01-06T03:10:45.336Z,72.35
2023-01-06T03:13:18.848Z,72.68
2023-01-06T03:15:46.776Z,72.50
2023-01-06T03:18:14.740Z,72.42
2023-01-06T03:20:44.154Z,72.78
2023-01-06T03:23:14.286Z,72.52
2023-01-06T03:25:42.124Z,72.51
2023-01-06T03:28:10.101Z,72.47
2023-01-06T03:30:44.360Z,72.65
2023-01-06T03:33:22.371Z,72.66
2023-01-06T03:36:01.926Z,72.53
2023-01-06T03:38:43.510Z,72.18
2023-01-06T03:41:20.969Z,72.43
2023-01-06T03:43:59.203Z,72.35
2023-01-06T03:46:35.860Z,72.45
2023-01-06T03:49:09.082Z,72.56
2023-01-06T03:51:49.205Z,72.47
2023-01-06T03:54:25.986Z,72.47
2023-01-06T03:56:58.502Z,72.61
2023-01-06T03:59:30.636Z,72.40
2023-01-06T04:01:59.540Z,72.47
2023-01-06T04:04:27.691Z,72.53
2023-01-06T04:06:56.823Z,72.47
2023-01-06T04:09:24.611Z,72.69
2023-01-06T04:12:09.925Z,72.70
2023-01-06T04:14:37.815Z,72.59
2023-01-06T04:17:05.626Z,72.71
2023-01-06T04:19:33.408Z,72.50
2023-01-06T04:22:02.591Z,72.31
2023-01-06T04:24:31.726Z,72.82
2023-01-06T04:26:59.497Z,72.48
2023-01-06T04:29:27.292Z,72.73
2023-01-06T04:31:55.065Z,72.67
2023-01-06T04:34:22.838Z,72.73
2023-01-06T04:36:50.621Z,72.60
2023-01-06T04:39:19.751Z,72.59
2023-01-06T04:41:47.663Z,72.63
2023-01-06T04:44:15.528Z,72.39
2023-01-06T04:46:43.316Z,72.62
2023-01-06T04:49:11.113Z,72.51
2023-01-06T04:51:38.866Z,72.46
2023-01-06T04:54:06.705Z,72.48
2023-01-06T04:56:35.960Z,72.62
2023-01-06T04:59:03.772Z,72.54
2023-01-06T05:01:31.675Z,72.54
2023-01-06T05:03:59.604Z,72.32
2023-01-06T05:06:27.412Z,72.48
2023-01-06T05:08:55.179Z,72.61
2023-01-06T05:11:25.088Z,72.46
2023-01-06T05:13:55.255Z,72.30
2023-01-06T05:16:27.221Z,72.30
2023-01-06T05:18:56.168Z,72.20
2023-01-06T05:21:24.886Z,72.41
2023-01-06T05:23:52.967Z,72.26
2023-01-06T05:26:22.376Z,72.28
2023-01-06T05:28:50.274Z,72.37
2023-01-06T05:31:19.617Z,72.54
2023-01-06T05:33:47.484Z,72.25
2023-01-06T05:36:16.932Z,72.48
2023-01-06T05:38:45.257Z,72.78
2023-01-06T05:41:13.361Z,72.39
2023-01-06T05:43:41.305Z,72.31
2023-01-06T05:46:11.093Z,72.35
2023-01-06T05:48:40.953Z,72.07
2023-01-06T05:51:11.211Z,72.52
2023-01-06T05:53:41.425Z,72.58
2023-01-06T05:56:11.405Z,72.24
2023-01-06T05:58:41.319Z,72.14
2023-01-06T06:01:17.074Z,72.15
2023-01-06T06:03:46.765Z,72.23
2023-01-06T06:06:15.075Z,72.28
2023-01-06T06:08:42.967Z,72.28
2023-01-06T06:11:13.306Z,72.57
2023-01-06T06:13:45.768Z,72.53
2023-01-06T06:16:15.077Z,72.31
2023-01-06T06:18:44.020Z,72.17
2023-01-06T06:21:14.497Z,72.44
2023-01-06T06:23:42.767Z,72.44
2023-01-06T06:26:12.044Z,72.36
2023-01-06T06:28:41.288Z,72.21
2023-01-06T06:31:11.155Z,72.39
2023-01-06T06:33:39.306Z,72.19
2023-01-06T06:36:11.682Z,72.33
2023-01-06T06:38:40.796Z,72.29
2023-01-06T06:41:08.585Z,72.44
2023-01-06T06:43:36.626Z,72.37
2023-01-06T06:46:04.851Z,72.26
2023-01-06T06:48:32.989Z,72.62
2023-01-06T06:51:02.512Z,72.33
2023-01-06T06:53:30.656Z,72.45
2023-01-06T06:56:00.224Z,72.45
2023-01-06T06:58:28.827Z,72.44
2023-01-06T07:00:56.793Z,72.65
2023-01-06T07:03:25.383Z,72.76
2023-01-06T07:05:53.852Z,72.94
2023-01-06T07:08:22.042Z,72.52
2023-01-06T07:10:50.371Z,72.76
2023-01-06T07:13:19.589Z,72.81
2023-01-06T07:15:47.588Z,72.99
2023-01-06T07:18:16.919Z,72.88
2023-01-06T07:20:48.667Z,72.49
2023-01-06T07:23:16.569Z,72.52
2023-01-06T07:25:44.605Z,72.54
2023-01-06T07:28:12.391Z,72.52
2023-01-06T07:30:41.642Z,72.87
2023-01-06T07:33:09.461Z,72.87
2023-01-06T07:35:37.208Z,73.54
2023-01-06T07:38:05.546Z,73.58
2023-01-06T07:40:33.627Z,73.58
2023-01-06T07:43:05.841Z,73.37
2023-01-06T07:45:34.466Z,73.08
2023-01-06T07:48:03.846Z,73.44
2023-01-06T07:50:32.239Z,74.05
2023-01-06T07:53:00.979Z,73.86
2023-01-06T07:55:30.155Z,73.87
2023-01-06T07:57:58.645Z,73.88
2023-01-06T08:00:26.600Z,73.61
2023-01-06T08:02:54.532Z,73.49
2023-01-06T08:05:23.780Z,73.49
2023-01-06T08:07:51.629Z,73.96
2023-01-06T08:10:19.377Z,73.88
2023-01-06T08:12:47.206Z,73.77
2023-01-06T08:15:14.962Z,73.85
2023-01-06T08:17:43.129Z,73.78
2023-01-06T08:20:11.596Z,73.69
2023-01-06T08:22:40.784Z,73.97
2023-01-06T08:25:09.575Z,73.88
2023-01-06T08:27:37.433Z,73.80
2023-01-06T08:30:06.620Z,73.63
2023-01-06T08:32:34.434Z,74.16
2023-01-06T08:35:02.258Z,74.11
2023-01-06T08:37:30.034Z,74.30
2023-01-06T08:39:59.214Z,73.93
2023-01-06T08:42:26.993Z,74.20
2023-01-06T08:44:54.874Z,74.19
2023-01-06T08:47:22.655Z,74.20
2023-01-06T08:49:50.489Z,74.14
2023-01-06T08:52:18.475Z,73.96
2023-01-06T08:54:46.310Z,73.84
2023-01-06T08:57:16.315Z,74.13
2023-01-06T08:59:44.463Z,73.87
2023-01-06T09:02:12.720Z,74.10
2023-01-06T09:04:40.609Z,73.89
2023-01-06T09:07:08.456Z,73.85
2023-01-06T09:09:36.254Z,73.97
2023-01-06T09:12:04.233Z,74.11
2023-01-06T09:14:33.644Z,74.15
2023-01-06T09:17:01.641Z,74.00
2023-01-06T09:19:29.381Z,74.24
2023-01-06T09:21:57.164Z,74.38
2023-01-06T09:24:25.298Z,74.27
2023-01-06T09:26:53.124Z,74.14
2023-01-06T09:29:21.422Z,73.98
2023-01-06T09:31:50.551Z,73.67
2023-01-06T09:34:18.324Z,72.96
2023-01-06T09:36:46.608Z,72.21
2023-01-06T09:39:14.460Z,71.95
2023-01-06T09:41:56.066Z,71.18
2023-01-06T09:44:29.727Z,70.27
2023-01-06T09:47:01.377Z,70.25
2023-01-06T09:49:34.491Z,69.06
2023-01-06T09:52:06.438Z,68.51
2023-01-06T09:54:40.382Z,68.21
2023-01-06T09:57:15.071Z,68.05
2023-01-06T09:59:48.946Z,67.54
2023-01-06T10:02:24.048Z,67.70
2023-01-06T10:04:51.983Z,67.32
2023-01-06T10:07:26.118Z,67.40
2023-01-06T10:10:04.598Z,67.57
2023-01-06T10:12:49.404Z,67.21
2023-01-06T10:15:27.800Z,67.06
2023-01-06T10:18:12.163Z,67.29
2023-01-06T10:20:55.219Z,67.63
2023-01-06T10:23:38.349Z,67.70
2023-01-06T10:26:13.692Z,68.44
2023-01-06T10:28:44.362Z,69.37
2023-01-06T10:31:18.526Z,69.57
2023-01-06T10:33:51.642Z,70.44
2023-01-06T10:36:32.910Z,70.71
2023-01-06T10:39:07.286Z,71.17
2023-01-06T10:41:45.784Z,71.03
2023-01-06T10:44:15.152Z,71.56
2023-01-06T10:46:45.492Z,71.48
2023-01-06T10:49:18.243Z,71.51
2023-01-06T10:51:52.034Z,71.90
2023-01-06T10:54:23.867Z,71.64
2023-01-06T10:56:55.998Z,71.63
2023-01-06T10:59:23.825Z,71.81
2023-01-06T11:01:53.097Z,72.19
2023-01-06T11:04:22.535Z,71.63
2023-01-06T11:06:52.352Z,71.60
2023-01-06T11:09:31.171Z,71.96
2023-01-06T11:12:02.473Z,72.15
2023-01-06T11:14:33.460Z,72.42
2023-01-06T11:17:03.255Z,71.98
2023-01-06T11:19:40.885Z,72.19
2023-01-06T11:22:33.026Z,71.80
2023-01-06T11:25:01.005Z,71.93
2023-01-06T11:27:28.953Z,71.87
2023-01-06T11:29:56.799Z,71.84
2023-01-06T11:32:27.769Z,71.99
2023-01-06T11:35:00.022Z,71.65
2023-01-06T11:37:37.802Z,71.90
2023-01-06T11:40:19.785Z,71.71
2023-01-06T11:42:50.341Z,71.87
2023-01-06T11:45:34.644Z,71.72
2023-01-06T11:48:03.528Z,71.34
2023-01-06T11:50:33.059Z,70.90
2023-01-06T11:53:02.131Z,71.33
2023-01-06T11:55:30.736Z,71.14
2023-01-06T11:58:04.203Z,71.09
2023-01-06T12:00:39.547Z,71.30
2023-01-06T12:03:18.020Z,71.37
2023-01-06T12:05:55.912Z,70.90
2023-01-06T12:08:27.558Z,71.15
2023-01-06T12:11:00.877Z,71.03
2023-01-06T12:13:28.737Z,70.73
2023-01-06T12:16:02.240Z,70.98
2023-01-06T12:18:34.142Z,70.88
2023-01-06T12:21:05.132Z,70.82
2023-01-06T12:23:36.838Z,70.58
2023-01-06T12:26:10.114Z,70.62
2023-01-06T12:28:40.865Z,70.71
2023-01-06T12:31:14.468Z,70.79
2023-01-06T12:33:50.002Z,70.80
2023-01-06T12:36:25.946Z,70.52
2023-01-06T12:38:56.269Z,70.11
2023-01-06T12:41:33.258Z,70.08
2023-01-06T12:44:11.224Z,70.27
2023-01-06T12:46:44.372Z,70.30
2023-01-06T12:49:22.835Z,70.05
2023-01-06T12:51:56.087Z,70.20
2023-01-06T12:54:29.119Z,70.25
2023-01-06T12:57:10.529Z,69.95
2023-01-06T13:00:00.991Z,69.95
2023-01-06T13:02:48.972Z,70.18
2023-01-06T13:05:36.996Z,70.25
2023-01-06T13:08:22.293Z,69.97
2023-01-06T13:11:00.405Z,69.97
2023-01-06T13:13:46.440Z,70.21
2023-01-06T13:16:20.350Z,70.19
2023-01-06T13:18:59.069Z,70.32
2023-01-06T13:21:27.818Z,70.60
2023-01-06T13:24:16.466Z,70.39
2023-01-06T13:27:10.036Z,70.66
2023-01-06T13:29:52.980Z,70.67
2023-01-06T13:32:42.216Z,70.81
2023-01-06T13:35:29.150Z,70.76
2023-01-06T13:38:06.386Z,70.51
2023-01-06T13:40:39.661Z,71.09
2023-01-06T13:43:15.142Z,70.84
2023-01-06T13:45:47.506Z,70.69
2023-01-06T13:48:19.974Z,71.18
2023-01-06T13:50:48.821Z,70.74
2023-01-06T13:53:19.200Z,70.71
2023-01-06T13:55:48.382Z,70.72
2023-01-06T13:58:37.895Z,71.31
2023-01-06T14:01:07.631Z,70.58
2023-01-06T14:03:35.614Z,70.33
2023-01-06T14:06:04.951Z,69.59
2023-01-06T14:08:39.645Z,68.83
2023-01-06T14:11:25.869Z,68.65
2023-01-06T14:13:56.395Z,67.85
2023-01-06T14:16:40.667Z,67.99
2023-01-06T14:19:10.957Z,67.96
2023-01-06T14:21:38.759Z,68.06
2023-01-06T14:24:09.329Z,68.74
2023-01-06T14:27:01.324Z,69.27
2023-01-06T14:29:59.140Z,69.43
2023-01-06T14:33:05.331Z,70.31
2023-01-06T14:35:38.266Z,70.10
2023-01-06T14:38:08.096Z,70.39
2023-01-06T14:40:40.695Z,70.96
2023-01-06T14:43:34.438Z,71.03
2023-01-06T14:46:09.099Z,70.92
2023-01-06T14:48:44.312Z,71.44
2023-01-06T14:51:18.717Z,71.75
2023-01-06T14:53:52.490Z,71.48
2023-01-06T14:56:22.548Z,71.66
2023-01-06T14:58:51.791Z,71.42
2023-01-06T15:01:24.753Z,72.17
2023-01-06T15:03:57.755Z,71.59
2023-01-06T15:06:27.164Z,72.23
2023-01-06T15:08:55.495Z,71.96
2023-01-06T15:11:27.971Z,72.34
2023-01-06T15:13:57.866Z,72.46
2023-01-06T15:16:35.603Z,72.13
2023-01-06T15:19:07.059Z,72.47
2023-01-06T15:21:40.184Z,72.41
2023-01-06T15:24:19.631Z,72.69
2023-01-06T15:26:47.695Z,72.33
2023-01-06T15:29:19.390Z,72.67
2023-01-06T15:31:49.194Z,72.84
2023-01-06T15:34:20.283Z,72.30
2023-01-06T15:36:50.782Z,71.86
2023-01-06T15:39:26.192Z,71.55
2023-01-06T15:41:55.128Z,70.79
2023-01-06T15:44:28.831Z,70.00
2023-01-06T15:47:03.307Z,69.67
2023-01-06T15:49:34.540Z,68.59
2023-01-06T15:52:04.900Z,67.80
2023-01-06T15:54:35.057Z,67.99
2023-01-06T15:57:15.739Z,68.27
2023-01-06T15:59:55.107Z,68.93
2023-01-06T16:02:26.477Z,69.39
2023-01-06T16:04:54.671Z,69.67
2023-01-06T16:07:33.469Z,70.00
2023-01-06T16:10:01.616Z,70.52
2023-01-06T16:12:29.539Z,70.47
2023-01-06T16:14:58.678Z,71.27
2023-01-06T16:17:30.869Z,71.14
2023-01-06T16:20:03.169Z,71.40
2023-01-06T16:22:35.066Z,71.87
2023-01-06T16:25:05.025Z,71.88
2023-01-06T16:27:33.051Z,71.69
2023-01-06T16:30:26.956Z,71.99
2023-01-06T16:32:56.469Z,71.88
2023-01-06T16:35:27.485Z,72.34
2023-01-06T16:37:55.627Z,72.36
2023-01-06T16:40:25.680Z,72.49
2023-01-06T16:42:58.950Z,72.18
2023-01-06T16:45:34.486Z,72.25
2023-01-06T16:48:02.817Z,72.72
2023-01-06T16:50:35.385Z,72.29
2023-01-06T16:53:12.494Z,72.35
2023-01-06T16:55:42.084Z,72.41
2023-01-06T16:58:16.037Z,72.47
2023-01-06T17:00:51.580Z,72.90
2023-01-06T17:03:21.306Z,72.79
2023-01-06T17:05:49.200Z,72.53
2023-01-06T17:08:19.909Z,72.79
2023-01-06T17:10:47.721Z,72.90
2023-01-06T17:13:34.913Z,72.67
2023-01-06T17:16:14.316Z,73.12
2023-01-06T17:18:52.017Z,73.14
2023-01-06T17:21:22.287Z,73.16
2023-01-06T17:23:52.885Z,73.12
2023-01-06T17:26:24.054Z,72.72
2023-01-06T17:28:53.891Z,73.19
2023-01-06T17:31:30.603Z,72.89
2023-01-06T17:33:59.084Z,73.18
2023-01-06T17:36:33.786Z,73.29
2023-01-06T17:39:01.704Z,73.18
2023-01-06T17:41:30.713Z,73.05
2023-01-06T17:43:58.589Z,73.59
2023-01-06T17:46:31.448Z,72.91
2023-01-06T17:49:08.571Z,72.96
2023-01-06T17:51:43.557Z,72.76
2023-01-06T17:54:42.321Z,73.19
2023-01-06T17:57:14.430Z,72.93
2023-01-06T17:59:43.046Z,72.70
2023-01-06T18:02:31.366Z,71.63
2023-01-06T18:05:03.187Z,71.07
2023-01-06T18:07:33.275Z,70.34
2023-01-06T18:10:01.059Z,69.44
2023-01-06T18:12:29.250Z,68.94
2023-01-06T18:14:57.087Z,69.02
2023-01-06T18:17:30.006Z,68.93
2023-01-06T18:19:59.069Z,69.71
2023-01-06T18:22:28.973Z,69.78
2023-01-06T18:25:01.218Z,70.48
2023-01-06T18:27:33.430Z,70.54
2023-01-06T18:30:13.607Z,71.30
2023-01-06T18:32:43.714Z,71.47
2023-01-06T18:35:15.517Z,71.56
2023-01-06T18:37:43.991Z,71.81
2023-01-06T18:40:15.049Z,71.89
2023-01-06T18:42:45.274Z,72.33
2023-01-06T18:45:25.223Z,72.18
2023-01-06T18:47:57.835Z,72.57
2023-01-06T18:50:36.990Z,72.38
2023-01-06T18:53:19.578Z,72.68
2023-01-06T18:55:51.086Z,72.57
2023-01-06T18:58:41.320Z,72.99
2023-01-06T19:01:20.639Z,73.20
2023-01-06T19:04:04.437Z,73.08
2023-01-06T19:06:46.441Z,73.08
2023-01-06T19:09:20.032Z,72.89
2023-01-06T19:11:49.161Z,73.21
2023-01-06T19:14:19.430Z,73.33
2023-01-06T19:16:51.851Z,73.57
2023-01-06T19:19:38.200Z,73.48
2023-01-06T19:22:18.009Z,73.24
2023-01-06T19:24:49.375Z,73.53
2023-01-06T19:27:40.531Z,73.64
2023-01-06T19:30:40.018Z,73.76
2023-01-06T19:33:37.626Z,73.59
2023-01-06T19:36:35.211Z,73.56
2023-01-06T19:39:16.318Z,73.92
2023-01-06T19:41:44.113Z,73.73
2023-01-06T19:44:14.665Z,74.03
2023-01-06T19:46:44.270Z,74.03
2023-01-06T19:49:16.811Z,73.64
2023-01-06T19:51:47.111Z,73.60
2023-01-06T19:54:24.832Z,74.18
2023-01-06T19:56:54.176Z,74.27
2023-01-06T19:59:26.693Z,73.82
2023-01-06T20:02:00.299Z,73.96
2023-01-06T20:04:28.960Z,74.01
2023-01-06T20:06:58.179Z,74.34
2023-01-06T20:09:26.075Z,74.33
2023-01-06T20:11:54.279Z,74.46
2023-01-06T20:14:22.349Z,74.38
2023-01-06T20:16:50.813Z,74.21
2023-01-06T20:19:21.458Z,73.99
2023-01-06T20:21:49.376Z,74.39
2023-01-06T20:24:18.713Z,74.13
2023-01-06T20:26:46.565Z,74.09
2023-01-06T20:29:14.378Z,74.11
2023-01-06T20:31:42.513Z,74.32
2023-01-06T20:34:10.432Z,74.26
2023-01-06T20:36:38.217Z,74.13
2023-01-06T20:39:06.197Z,74.43
2023-01-06T20:41:35.578Z,74.04
2023-01-06T20:44:03.370Z,74.30
2023-01-06T20:46:31.197Z,74.32
2023-01-06T20:48:59.514Z,74.29
2023-01-06T20:51:27.333Z,74.29
2023-01-06T20:53:55.134Z,74.01
2023-01-06T20:56:22.928Z,74.09
2023-01-06T20:58:52.234Z,74.46
2023-01-06T21:01:20.308Z,74.37
2023-01-06T21:03:48.253Z,73.90
2023-01-06T21:06:16.324Z,74.35
2023-01-06T21:08:44.220Z,74.11
2023-01-06T21:11:12.034Z,74.27
2023-01-06T21:13:39.807Z,74.14
2023-01-06T21:16:09.693Z,74.28
2023-01-06T21:18:37.697Z,74.05
2023-01-06T21:21:05.934Z,74.14
2023-01-06T21:23:33.786Z,74.27
2023-01-06T21:26:01.594Z,73.90
2023-01-06T21:28:29.392Z,74.13
2023-01-06T21:30:57.272Z,74.31
2023-01-06T21:33:27.657Z,74.03
2023-01-06T21:35:55.504Z,74.12
2023-01-06T21:38:23.296Z,74.17
2023-01-06T21:40:51.258Z,73.80
2023-01-06T21:43:19.319Z,74.19
2023-01-06T21:45:48.003Z,73.89
2023-01-06T21:48:15.889Z,74.07
2023-01-06T21:50:46.349Z,73.77
2023-01-06T21:53:15.414Z,74.12
2023-01-06T21:55:43.321Z,73.87
2023-01-06T21:58:11.795Z,73.99
2023-01-06T22:00:39.672Z,73.92
2023-01-06T22:03:07.763Z,74.03
2023-01-06T22:05:35.987Z,73.74
2023-01-06T22:08:06.949Z,73.54
2023-01-06T22:10:37.592Z,73.81
2023-01-06T22:13:05.621Z,73.66
2023-01-06T22:15:34.891Z,73.41
2023-01-06T22:18:03.620Z,73.58
2023-01-06T22:20:33.254Z,73.76
2023-01-06T22:23:03.386Z,73.81
2023-01-06T22:25:32.626Z,73.76
2023-01-06T22:28:00.424Z,73.47
2023-01-06T22:30:30.601Z,73.73
2023-01-06T22:32:58.773Z,73.35
2023-01-06T22:35:26.791Z,73.50
2023-01-06T22:37:54.615Z,73.54
2023-01-06T22:40:22.538Z,73.68
2023-01-06T22:42:51.823Z,73.32
2023-01-06T22:45:19.767Z,73.54
2023-01-06T22:47:47.569Z,73.48
2023-01-06T22:50:15.410Z,73.58
2023-01-06T22:52:43.250Z,73.40
2023-01-06T22:55:11.337Z,73.60
2023-01-06T22:57:39.166Z,73.33
2023-01-06T23:00:14.171Z,73.68
2023-01-06T23:02:42.211Z,73.44
2023-01-06T23:05:11.344Z,73.51
2023-01-06T23:07:40.085Z,73.70
2023-01-06T23:10:10.963Z,73.22
2023-01-06T23:12:40.071Z,73.64
2023-01-06T23:15:10.716Z,73.19
2023-01-06T23:17:38.876Z,73.21
2023-01-06T23:20:07.641Z,73.45
2023-01-06T23:22:35.602Z,73.32
2023-01-06T23:25:03.427Z,73.21
2023-01-06T23:27:31.577Z,73.46
2023-01-06T23:29:59.459Z,73.20
2023-01-06T23:32:28.699Z,73.45
2023-01-06T23:34:56.465Z,73.21
2023-01-06T23:37:24.315Z,73.55
2023-01-06T23:39:53.604Z,73.38
2023-01-06T23:42:21.447Z,73.18
2023-01-06T23:44:49.594Z,73.42
2023-01-06T23:47:17.518Z,73.28
2023-01-06T23:49:48.816Z,73.40
2023-01-06T23:52:16.708Z,73.16
2023-01-06T23:54:44.530Z,73.22
2023-01-06T23:57:12.337Z,73.22
2023-01-06T23:59:40.134Z,73.47
